Guacui, Brazil
Current Conditions -  °F | °C
As of 12:00 PM on Wednesday 22 Oct 2014 (Local Time) from SBCP Reporting Station
Overcast Overcast  
Wind Chill: 75°   Ceiling: 2000
Heat Index: 75°   Visibility: 6mi
Dew Point: 63°   Wind: 2mph
Humidity: 65%   Direction: 200°SSW
Pressure: 30.18"   Gusts: NA
Location:  20.78°S, 41.68°W
Report Text: SBCP 221400Z 20002KT 9999 BKN020 OVC090 24/17 Q1022
Loading
Personal Weather Stations






























Interactive Weather Map
Tropical Storm Tracking
New forecast layout! Learn more

10-Day Weather Forecast

Advertisements
Track Severe Weather on mobile